Time;durP1;ratioP1;P1;durP2;ratioP2;P2;SDS_P1;SDS_P2;PMS_P1;PMS_P2;Temp;Humidity;BMP_temperature;BMP_pressure;BME280_temperature;BME280_humidity;BME280_pressure;Samples;Min_cycle;Max_cycle;Signal;HPM_P1;HPM_P2
2022/04/02 00:02:00;;;;;;;1.17;0.73;;;2.30;99.90;;;;;;5033412;28;20029;-72
2022/04/02 00:04:26;;;;;;;0.88;0.80;;;2.20;99.90;;;;;;5015802;28;20025;-73
2022/04/02 00:06:53;;;;;;;0.45;0.45;;;2.20;99.90;;;;;;5031951;28;20108;-73
2022/04/02 00:09:20;;;;;;;0.60;0.60;;;2.10;99.90;;;;;;5032262;28;20072;-72
2022/04/02 00:11:45;;;;;;;0.73;0.73;;;2.20;99.90;;;;;;5032263;28;20021;-73
2022/04/02 00:14:12;;;;;;;1.45;1.38;;;2.30;99.90;;;;;;5033355;28;20037;-73
2022/04/02 00:16:38;;;;;;;0.30;0.30;;;2.30;99.90;;;;;;5031839;28;20048;-73
2022/04/02 00:19:03;;;;;;;1.90;1.60;;;2.10;99.90;;;;;;5032012;28;20332;-73
2022/04/02 00:21:29;;;;;;;2.20;1.85;;;2.10;99.90;;;;;;5031924;28;20449;-73
2022/04/02 00:23:55;;;;;;;0.98;0.77;;;2.10;99.90;;;;;;5033185;28;20096;-72
2022/04/02 00:26:20;;;;;;;0.50;0.50;;;2.10;99.90;;;;;;5015184;28;20424;-72
2022/04/02 00:28:48;;;;;;;1.65;1.55;;;2.20;99.90;;;;;;5031580;28;20026;-73
2022/04/02 00:31:15;;;;;;;0.45;0.45;;;2.30;99.90;;;;;;5032909;28;20047;-73
2022/04/02 00:33:43;;;;;;;2.00;1.58;;;2.40;99.90;;;;;;5032885;28;20044;-72
2022/04/02 00:36:09;;;;;;;4.22;2.20;;;2.30;99.90;;;;;;5031316;28;20036;-72
2022/04/02 00:38:36;;;;;;;0.63;0.63;;;2.10;99.90;;;;;;5031671;28;20144;-73
2022/04/02 00:41:02;;;;;;;4.78;1.88;;;2.10;99.90;;;;;;5032671;28;20033;-72
2022/04/02 00:43:28;;;;;;;0.68;0.68;;;1.90;99.90;;;;;;5032678;28;20469;-73
2022/04/02 00:45:57;;;;;;;0.30;0.30;;;2.00;99.90;;;;;;5032612;28;20033;-73
2022/04/02 00:48:24;;;;;;;2.53;1.15;;;2.00;99.90;;;;;;5031422;28;20110;-73
2022/04/02 00:50:52;;;;;;;0.30;0.30;;;2.10;99.90;;;;;;5032613;28;20468;-72
2022/04/02 00:53:18;;;;;;;4.75;2.35;;;2.20;99.90;;;;;;5015039;28;20026;-73
2022/04/02 00:55:45;;;;;;;0.30;0.30;;;2.10;99.90;;;;;;5032452;28;20397;-73
2022/04/02 00:58:11;;;;;;;0.40;0.40;;;2.20;99.90;;;;;;5031151;28;20523;-73
2022/04/02 01:00:40;;;;;;;1.27;1.08;;;2.20;99.90;;;;;;5032501;28;20097;-73
2022/04/02 01:03:07;;;;;;;1.42;0.70;;;2.30;99.90;;;;;;5032353;28;20022;-73
2022/04/02 01:05:35;;;;;;;1.10;0.82;;;2.10;99.90;;;;;;5014392;28;20029;-73
2022/04/02 01:08:05;;;;;;;9.60;4.40;;;2.10;99.90;;;;;;5032483;28;20018;-73
2022/04/02 01:10:35;;;;;;;0.20;0.20;;;2.00;99.90;;;;;;5031159;28;20083;-73
2022/04/02 01:13:02;;;;;;;0.28;0.28;;;2.10;99.90;;;;;;5047686;28;20029;-73
2022/04/02 01:15:28;;;;;;;0.65;0.65;;;2.00;99.90;;;;;;5031250;28;20030;-72
2022/04/02 01:17:55;;;;;;;1.13;0.88;;;2.20;99.90;;;;;;5031336;28;20385;-73
2022/04/02 01:20:23;;;;;;;4.20;1.25;;;2.00;99.90;;;;;;5032253;28;20068;-71
2022/04/02 01:22:49;;;;;;;0.30;0.30;;;1.90;99.90;;;;;;5032190;28;20440;-71
2022/04/02 01:25:15;;;;;;;1.70;1.58;;;1.90;99.90;;;;;;5032025;28;20034;-71
2022/04/02 01:27:42;;;;;;;3.75;2.28;;;1.80;99.90;;;;;;5030799;28;20068;-71
2022/04/02 01:30:08;;;;;;;0.52;0.50;;;1.70;99.90;;;;;;5032161;28;20036;-70
2022/04/02 01:32:34;;;;;;;0.63;0.63;;;1.60;99.90;;;;;;5032040;28;20025;-70
2022/04/02 01:35:00;;;;;;;0.73;0.73;;;1.70;99.90;;;;;;5032020;28;20040;-70
2022/04/02 01:37:26;;;;;;;1.95;1.60;;;1.80;99.90;;;;;;5030808;28;20022;-71
2022/04/02 01:39:52;;;;;;;3.40;2.15;;;1.70;99.90;;;;;;5031856;28;20112;-71
2022/04/02 01:42:24;;;;;;;0.50;0.50;;;1.60;99.90;;;;;;5030797;28;20057;-71
2022/04/02 01:44:51;;;;;;;0.30;0.30;;;1.70;99.90;;;;;;5014240;28;20025;-71
2022/04/02 01:47:18;;;;;;;1.67;1.58;;;1.80;99.90;;;;;;5032912;28;20377;-71
2022/04/02 01:49:45;;;;;;;0.30;0.30;;;1.90;99.90;;;;;;5035819;28;20025;-71
2022/04/02 01:52:12;;;;;;;0.30;0.30;;;2.00;99.90;;;;;;5035907;28;20521;-71
2022/04/02 01:54:37;;;;;;;1.95;0.50;;;2.00;99.90;;;;;;5035644;28;20087;-71
2022/04/02 01:57:03;;;;;;;0.50;0.50;;;2.20;99.90;;;;;;5035748;28;20025;-71
2022/04/02 01:59:29;;;;;;;4.60;4.00;;;2.20;99.90;;;;;;5035713;28;20028;-71
2022/04/02 02:01:55;;;;;;;0.40;0.40;;;2.20;99.90;;;;;;5035657;28;20025;-70
2022/04/02 02:04:20;;;;;;;0.60;0.60;;;2.00;99.90;;;;;;5035577;28;20048;-71
2022/04/02 02:06:46;;;;;;;1.45;1.27;;;1.80;99.90;;;;;;5034336;28;20024;-71
2022/04/02 02:09:12;;;;;;;1.30;1.25;;;1.80;99.90;;;;;;5035664;28;20026;-71
2022/04/02 02:11:40;;;;;;;0.20;0.20;;;1.90;99.90;;;;;;5035536;28;20017;-71
2022/04/02 02:14:05;;;;;;;1.08;0.68;;;1.90;99.90;;;;;;5035512;28;20507;-70
2022/04/02 02:16:31;;;;;;;1.15;1.15;;;1.90;99.90;;;;;;5035287;28;20034;-71
2022/04/02 02:18:57;;;;;;;1.13;1.05;;;1.80;99.90;;;;;;5034069;28;20029;-71
2022/04/02 02:21:22;;;;;;;0.75;0.60;;;1.70;99.90;;;;;;5035371;28;20021;-71
2022/04/02 02:23:48;;;;;;;1.67;1.58;;;1.60;99.90;;;;;;5035363;28;20029;-71
2022/04/02 02:26:14;;;;;;;2.95;1.95;;;1.70;99.90;;;;;;5035180;28;20389;-71
2022/04/02 02:28:41;;;;;;;1.27;1.00;;;1.80;99.90;;;;;;5035683;28;20029;-71
2022/04/02 02:31:07;;;;;;;0.30;0.30;;;1.70;99.90;;;;;;5035130;28;20025;-71
2022/04/02 02:36:17;;;;;;;0.30;0.30;;;1.80;99.90;;;;;;5033727;28;20131;-71
2022/04/02 02:38:44;;;;;;;5.68;2.95;;;2.00;99.90;;;;;;5035041;28;20503;-72
2022/04/02 02:41:10;;;;;;;3.70;1.63;;;2.10;99.90;;;;;;5035032;28;20029;-72
2022/04/02 02:43:37;;;;;;;1.77;1.65;;;1.80;99.90;;;;;;5035043;28;20080;-72
2022/04/02 02:46:03;;;;;;;3.22;2.33;;;1.60;99.90;;;;;;5035171;28;20022;-71
2022/04/02 02:48:29;;;;;;;1.17;1.17;;;1.60;99.90;;;;;;5034907;28;20025;-72
2022/04/02 02:50:54;;;;;;;0.40;0.40;;;1.60;99.90;;;;;;5034903;28;20021;-71
2022/04/02 02:53:20;;;;;;;1.98;1.40;;;1.70;99.90;;;;;;5034966;28;20026;-71
2022/04/02 02:55:48;;;;;;;0.50;0.50;;;1.70;99.90;;;;;;5034750;28;20056;-72
2022/04/02 02:58:14;;;;;;;7.88;4.57;;;1.70;99.90;;;;;;5033199;28;20606;-71
2022/04/02 03:00:41;;;;;;;1.02;1.02;;;1.60;99.90;;;;;;5033646;28;20032;-72
2022/04/02 03:03:07;;;;;;;0.30;0.30;;;1.50;99.90;;;;;;5034607;28;20063;-71
2022/04/02 03:05:33;;;;;;;0.45;0.45;;;1.60;99.90;;;;;;5034589;28;20033;-71
2022/04/02 03:07:59;;;;;;;0.20;0.20;;;1.60;99.90;;;;;;5034526;28;20026;-72
2022/04/02 03:10:26;;;;;;;0.30;0.30;;;1.70;99.90;;;;;;5016706;28;20025;-72
2022/04/02 03:12:54;;;;;;;0.45;0.45;;;1.90;99.90;;;;;;5034441;28;20022;-71
2022/04/02 03:15:20;;;;;;;0.50;0.50;;;1.90;99.90;;;;;;5034271;28;20516;-71
2022/04/02 03:17:47;;;;;;;0.75;0.75;;;2.10;99.90;;;;;;5034246;28;20065;-71
2022/04/02 03:20:15;;;;;;;1.25;1.00;;;2.20;99.90;;;;;;5033091;28;20067;-71
2022/04/02 03:22:43;;;;;;;3.88;2.45;;;2.10;99.90;;;;;;5034277;28;20025;-72
2022/04/02 03:25:14;;;;;;;2.22;2.05;;;2.00;99.90;;;;;;5033010;28;20026;-71
2022/04/02 03:27:40;;;;;;;1.33;1.33;;;1.70;99.90;;;;;;5033129;28;20056;-72
2022/04/02 03:30:11;;;;;;;4.90;2.08;;;1.70;99.90;;;;;;5034112;28;20500;-72
2022/04/02 03:32:37;;;;;;;0.50;0.50;;;1.70;99.90;;;;;;5032901;28;20057;-71
2022/04/02 03:35:05;;;;;;;2.83;1.77;;;1.70;99.90;;;;;;5033926;28;20097;-72
2022/04/02 03:37:31;;;;;;;0.95;0.60;;;1.70;99.90;;;;;;5034009;28;20396;-72
2022/04/02 03:39:57;;;;;;;2.47;2.25;;;1.80;99.90;;;;;;5033848;28;20100;-72
2022/04/02 03:42:23;;;;;;;0.63;0.63;;;1.70;99.90;;;;;;5032827;28;20022;-72
2022/04/02 03:44:49;;;;;;;0.60;0.60;;;1.70;99.90;;;;;;5033939;28;20026;-71
2022/04/02 03:47:15;;;;;;;0.70;0.70;;;1.80;99.90;;;;;;5032450;28;20032;-72
2022/04/02 03:49:44;;;;;;;0.98;0.93;;;1.80;99.90;;;;;;5032494;28;20124;-72
2022/04/02 03:52:11;;;;;;;0.22;0.22;;;1.90;99.90;;;;;;5033685;28;20474;-71
2022/04/02 03:54:39;;;;;;;1.05;1.05;;;1.90;99.90;;;;;;5033582;28;20041;-72
2022/04/02 03:57:10;;;;;;;0.50;0.50;;;2.00;99.90;;;;;;5033609;28;20025;-71
2022/04/02 03:59:36;;;;;;;0.43;0.43;;;2.00;99.90;;;;;;5033563;28;20500;-71
2022/04/02 04:02:04;;;;;;;2.70;2.47;;;2.00;99.90;;;;;;5032228;28;20487;-71
2022/04/02 04:04:31;;;;;;;2.30;2.17;;;1.90;99.90;;;;;;5032430;28;20391;-72
2022/04/02 04:06:57;;;;;;;6.53;1.75;;;1.70;99.90;;;;;;5033796;28;20032;-72
2022/04/02 04:09:23;;;;;;;0.47;0.47;;;1.50;99.90;;;;;;5033494;28;20072;-71
2022/04/02 04:11:50;;;;;;;0.45;0.45;;;1.40;99.90;;;;;;5031600;28;20033;-71
2022/04/02 04:14:16;;;;;;;1.08;0.98;;;1.50;99.90;;;;;;5033270;28;20049;-71
2022/04/02 04:16:43;;;;;;;0.30;0.30;;;1.40;99.90;;;;;;5032857;28;20444;-71
2022/04/02 04:19:09;;;;;;;0.52;0.52;;;1.50;99.90;;;;;;5032898;28;20044;-71
2022/04/02 04:21:35;;;;;;;0.30;0.30;;;1.60;99.90;;;;;;5033220;28;20052;-71
2022/04/02 04:24:02;;;;;;;0.30;0.30;;;1.70;99.90;;;;;;5031784;28;20076;-71
2022/04/02 04:26:28;;;;;;;0.40;0.40;;;1.70;99.90;;;;;;5032888;28;20357;-71
2022/04/02 04:28:54;;;;;;;1.65;1.55;;;1.90;99.90;;;;;;5032869;28;20434;-72
2022/04/02 04:31:20;;;;;;;0.30;0.30;;;1.80;99.90;;;;;;5031797;28;20034;-71
2022/04/02 04:33:47;;;;;;;0.43;0.43;;;1.70;99.90;;;;;;5032927;28;20029;-71
2022/04/02 04:36:13;;;;;;;0.60;0.60;;;1.70;99.90;;;;;;5032657;28;20087;-72
2022/04/02 04:38:39;;;;;;;6.07;2.90;;;1.70;99.90;;;;;;5031395;28;20021;-72
2022/04/02 04:41:05;;;;;;;0.63;0.63;;;1.80;99.90;;;;;;5032680;28;20045;-71
2022/04/02 04:43:31;;;;;;;0.90;0.90;;;1.80;99.90;;;;;;5031900;28;20113;-71
2022/04/02 04:45:57;;;;;;;1.55;0.52;;;1.80;99.90;;;;;;5031187;28;20065;-72
2022/04/02 04:48:23;;;;;;;0.30;0.30;;;1.90;99.90;;;;;;5032715;28;20030;-71
2022/04/02 04:50:48;;;;;;;0.30;0.30;;;2.00;99.90;;;;;;5032594;28;20029;-71
2022/04/02 04:53:15;;;;;;;2.50;1.15;;;2.10;99.90;;;;;;5031311;28;20026;-71
2022/04/02 04:55:48;;;;;;;0.40;0.40;;;2.20;99.90;;;;;;5071570;22;20083;-89
2022/04/02 04:58:16;;;;;;;0.30;0.30;;;2.20;99.90;;;;;;5037466;28;20025;-88
2022/04/02 05:00:45;;;;;;;0.30;0.30;;;2.20;99.90;;;;;;5038004;28;20371;-89
2022/04/02 05:03:24;;;;;;;0.38;0.38;;;2.20;99.90;;;;;;5038287;28;20490;-89
2022/04/02 05:05:52;;;;;;;0.20;0.20;;;2.20;99.90;;;;;;5046337;28;20040;-87
2022/04/02 05:08:20;;;;;;;0.40;0.40;;;2.10;99.90;;;;;;5060852;28;20017;-90
2022/04/02 05:10:47;;;;;;;0.40;0.40;;;2.10;99.90;;;;;;5061274;28;20016;-91
2022/04/02 05:13:15;;;;;;;3.97;3.60;;;2.10;99.90;;;;;;5060990;28;20021;-88
2022/04/02 05:15:42;;;;;;;1.98;1.88;;;2.10;99.90;;;;;;5060420;28;20031;-87
2022/04/02 05:18:09;;;;;;;0.40;0.40;;;2.10;99.90;;;;;;5059854;28;20025;-89
2022/04/02 05:20:52;;;;;;;0.30;0.30;;;2.20;99.90;;;;;;5060397;28;20048;-88
2022/04/02 05:23:36;;;;;;;1.15;1.05;;;2.30;99.90;;;;;;5045108;28;20128;-91
2022/04/02 05:26:14;;;;;;;2.78;0.65;;;2.40;99.90;;;;;;5035979;28;20067;-90
2022/04/02 05:29:05;;;;;;;1.38;0.93;;;2.50;99.90;;;;;;5051748;28;20037;-89
2022/04/02 05:31:47;;;;;;;0.20;0.20;;;2.30;99.90;;;;;;5036857;28;20449;-89
2022/04/02 05:34:38;;;;;;;;;;;2.40;99.90;;;;;;5037426;28;20028;-89
2022/04/02 05:37:23;;;;;;;0.30;0.30;;;2.60;99.90;;;;;;5037871;28;20000;-91
2022/04/02 05:39:50;;;;;;;0.80;0.80;;;2.60;99.90;;;;;;5036839;28;20033;-91
2022/04/02 05:42:39;;;;;;;3.80;1.95;;;2.50;99.90;;;;;;5036208;28;20029;-89
2022/04/02 05:45:10;;;;;;;2.42;1.25;;;2.60;99.90;;;;;;5035826;28;20021;-91
2022/04/02 05:48:01;;;;;;;0.63;0.40;;;2.70;99.90;;;;;;5046947;28;20028;-90
2022/04/02 05:50:30;;;;;;;0.38;0.38;;;2.60;99.90;;;;;;5034695;28;20025;-89
2022/04/02 05:56:11;;;;;;;8.98;4.15;;;2.40;99.90;;;;;;5028366;28;20591;-87
2022/04/02 06:03:15;;;;;;;0.55;0.55;;;2.30;99.90;;;;;;5025319;28;20467;-89
2022/04/02 06:06:01;;;;;;;0.30;0.30;;;2.50;99.90;;;;;;4979292;28;20030;-89
2022/04/02 06:08:27;;;;;;;2.53;2.33;;;2.60;99.90;;;;;;4959088;28;20476;-89
2022/04/02 06:10:59;;;;;;;0.20;0.20;;;2.60;99.90;;;;;;4959406;28;20107;-89
2022/04/02 06:13:25;;;;;;;0.88;0.88;;;2.50;99.90;;;;;;4967693;28;20041;-89
2022/04/02 06:15:54;;;;;;;0.68;0.68;;;2.50;99.90;;;;;;5009951;28;20430;-90
2022/04/02 06:18:23;;;;;;;0.30;0.30;;;2.40;99.90;;;;;;5047500;28;20025;-85
2022/04/02 06:20:51;;;;;;;0.85;0.85;;;2.30;99.90;;;;;;5058686;28;20049;-85
2022/04/02 06:23:18;;;;;;;0.70;0.70;;;2.20;99.90;;;;;;5058035;28;20022;-86
2022/04/02 06:25:50;;;;;;;2.72;0.93;;;2.00;99.90;;;;;;5036100;28;20365;-90
2022/04/02 06:28:24;;;;;;;6.22;2.55;;;1.90;99.90;;;;;;5038634;28;20479;-90
2022/04/02 06:30:50;;;;;;;1.65;0.95;;;1.80;99.90;;;;;;5052972;28;20128;-90
2022/04/02 06:33:41;;;;;;;0.90;0.90;;;1.80;99.90;;;;;;5040835;28;20033;-93
2022/04/02 06:36:34;;;;;;;8.15;4.78;;;2.00;99.90;;;;;;5059902;28;20059;-91
2022/04/02 06:39:12;;;;;;;2.05;1.10;;;1.90;99.90;;;;;;5042854;28;20454;-91
2022/04/02 06:41:38;;;;;;;3.55;3.15;;;1.80;99.90;;;;;;5043774;28;20482;-90
2022/04/02 06:44:07;;;;;;;0.90;0.80;;;1.60;99.90;;;;;;5050081;23;20585;-74
2022/04/02 06:46:33;;;;;;;2.60;2.35;;;1.50;99.90;;;;;;5038879;28;20511;-73
2022/04/02 06:48:58;;;;;;;15.77;8.00;;;1.50;99.90;;;;;;5035179;28;20032;-71
2022/04/02 06:51:26;;;;;;;1.10;1.00;;;1.40;99.90;;;;;;5034768;28;20104;-72
2022/04/02 06:53:53;;;;;;;1.70;1.60;;;1.30;99.90;;;;;;5033433;28;20026;-72
2022/04/02 06:56:19;;;;;;;6.07;2.92;;;1.30;99.90;;;;;;5034427;28;20029;-72
2022/04/02 06:58:44;;;;;;;0.43;0.43;;;1.40;99.90;;;;;;5034281;28;20042;-72
2022/04/02 07:01:10;;;;;;;0.73;0.73;;;1.50;99.90;;;;;;5033958;28;20030;-72
2022/04/02 07:03:37;;;;;;;2.85;2.65;;;1.70;99.90;;;;;;5033232;28;20037;-72
2022/04/02 07:06:03;;;;;;;2.28;0.82;;;2.00;99.90;;;;;;5033595;28;20032;-72
2022/04/02 07:08:29;;;;;;;0.73;0.73;;;1.80;99.90;;;;;;5033213;28;20384;-73
2022/04/02 07:10:55;;;;;;;3.72;3.42;;;1.80;99.90;;;;;;5031432;28;20018;-72
2022/04/02 07:13:22;;;;;;;0.40;0.40;;;1.80;99.90;;;;;;5032895;28;20035;-70
2022/04/02 07:15:48;;;;;;;1.33;1.23;;;1.70;99.90;;;;;;5029598;28;20121;-73
2022/04/02 07:18:14;;;;;;;0.63;0.63;;;1.50;99.90;;;;;;5030968;28;20440;-72
2022/04/02 07:20:40;;;;;;;14.23;3.05;;;1.60;99.90;;;;;;5030501;28;20611;-72
2022/04/02 07:23:09;;;;;;;3.40;1.10;;;1.70;99.90;;;;;;5032383;28;20021;-72
2022/04/02 07:25:39;;;;;;;1.23;0.77;;;1.90;99.90;;;;;;5031963;28;20025;-72
2022/04/02 07:28:06;;;;;;;0.77;0.77;;;1.90;99.90;;;;;;5032728;28;20388;-73
2022/04/02 07:30:34;;;;;;;0.80;0.80;;;2.10;99.90;;;;;;5033934;28;20029;-72
2022/04/02 07:33:00;;;;;;;1.73;1.15;;;2.10;99.90;;;;;;5049168;28;20021;-71
2022/04/02 07:35:32;;;;;;;3.15;2.78;;;2.20;99.90;;;;;;5029507;28;20436;-72
2022/04/02 07:38:18;;;;;;;0.60;0.60;;;2.10;99.90;;;;;;5033312;28;20109;-72
2022/04/02 07:41:06;;;;;;;1.20;1.10;;;2.30;99.90;;;;;;5033551;28;20124;-72
2022/04/02 07:44:01;;;;;;;0.63;0.63;;;2.20;99.90;;;;;;5032198;28;20537;-73
2022/04/02 07:46:30;;;;;;;4.32;3.92;;;2.10;99.90;;;;;;5031315;28;20045;-73
2022/04/02 07:48:57;;;;;;;0.50;0.50;;;2.00;99.90;;;;;;5015843;28;20029;-73
2022/04/02 07:51:26;;;;;;;0.60;0.60;;;2.10;99.90;;;;;;5033232;28;20100;-73
2022/04/02 07:53:55;;;;;;;2.50;1.60;;;2.30;99.90;;;;;;5012463;28;20175;-73
2022/04/02 07:56:37;;;;;;;0.40;0.40;;;2.10;99.90;;;;;;5013425;28;20532;-73
2022/04/02 07:59:11;;;;;;;1.42;1.20;;;2.00;99.90;;;;;;5013727;28;20474;-73
2022/04/02 08:01:37;;;;;;;5.63;4.78;;;1.90;99.90;;;;;;5012334;28;20505;-74
2022/04/02 08:04:04;;;;;;;1.90;1.83;;;1.70;99.90;;;;;;5028457;28;20022;-71
2022/04/02 08:06:37;;;;;;;0.45;0.45;;;1.50;99.90;;;;;;5032913;28;20473;-73
2022/04/02 08:09:03;;;;;;;2.00;1.90;;;1.70;99.90;;;;;;5031893;28;20029;-72
2022/04/02 08:11:31;;;;;;;0.32;0.32;;;1.70;99.90;;;;;;5033091;28;20026;-73
2022/04/02 08:13:57;;;;;;;1.65;1.38;;;1.80;99.90;;;;;;5033234;28;20025;-74
2022/04/02 08:16:23;;;;;;;4.55;2.55;;;1.90;99.90;;;;;;5032223;28;20041;-73
2022/04/02 08:18:53;;;;;;;2.55;1.15;;;1.60;99.90;;;;;;5032582;28;20037;-72
2022/04/02 08:21:19;;;;;;;3.17;1.63;;;1.60;99.90;;;;;;5031934;28;20028;-74
2022/04/02 08:23:45;;;;;;;2.47;1.75;;;1.60;99.90;;;;;;5033102;28;20093;-73
2022/04/02 08:26:35;;;;;;;4.00;3.63;;;1.60;99.90;;;;;;5032798;28;20021;-74
2022/04/02 08:29:13;;;;;;;1.33;1.20;;;1.50;99.90;;;;;;5032572;28;20017;-73
2022/04/02 08:32:02;;;;;;;1.77;1.65;;;1.40;99.90;;;;;;5032427;28;20382;-73
2022/04/02 08:34:55;;;;;;;7.78;3.70;;;1.50;99.90;;;;;;5032534;28;20030;-73
2022/04/02 08:37:29;;;;;;;9.57;2.25;;;1.40;99.90;;;;;;5032463;28;20083;-73
2022/04/02 08:40:32;;;;;;;2.83;1.00;;;1.40;99.90;;;;;;5031120;28;20029;-74
2022/04/02 08:43:31;;;;;;;0.93;0.93;;;1.70;99.90;;;;;;5031141;28;20372;-73
2022/04/02 08:46:09;;;;;;;0.47;0.47;;;1.90;99.90;;;;;;5032469;28;20147;-73
2022/04/02 08:48:35;;;;;;;2.05;1.95;;;2.20;99.90;;;;;;5032630;28;20030;-74
2022/04/02 08:51:30;;;;;;;7.32;3.70;;;2.20;99.90;;;;;;5031160;28;20382;-74
2022/04/02 08:54:04;;;;;;;0.50;0.50;;;2.20;99.90;;;;;;5032392;28;20079;-74
2022/04/02 08:56:43;;;;;;;2.00;1.90;;;2.30;99.90;;;;;;5030783;28;20036;-73
2022/04/02 08:59:21;;;;;;;0.82;0.82;;;2.50;99.90;;;;;;5032273;28;20033;-73
2022/04/02 09:02:25;;;;;;;3.92;3.15;;;2.40;99.90;;;;;;5031062;28;20025;-74
2022/04/02 09:05:24;;;;;;;0.30;0.30;;;2.20;99.90;;;;;;5030944;28;20018;-75
2022/04/02 09:08:26;;;;;;;1.52;1.48;;;2.40;99.90;;;;;;5031044;28;20036;-73
2022/04/02 09:10:52;;;;;;;2.47;2.28;;;2.30;99.90;;;;;;4977651;28;20489;-73
2022/04/02 09:13:56;;;;;;;2.22;1.10;;;2.40;99.90;;;;;;5032124;28;20026;-74
2022/04/02 09:16:27;;;;;;;3.47;2.50;;;2.40;99.90;;;;;;5031858;28;20028;-74
2022/04/02 09:19:14;;;;;;;1.63;1.17;;;2.10;99.90;;;;;;5032246;28;20033;-73
2022/04/02 09:21:54;;;;;;;0.40;0.40;;;2.00;99.90;;;;;;5030810;28;20104;-74
2022/04/02 09:24:35;;;;;;;1.05;1.05;;;2.10;99.90;;;;;;5031990;28;20026;-74
2022/04/02 09:27:25;;;;;;;1.38;1.13;;;2.20;99.90;;;;;;5031762;28;20025;-74
2022/04/02 09:30:32;;;;;;;1.90;1.50;;;2.40;99.90;;;;;;5031970;28;20179;-74
2022/04/02 09:33:30;;;;;;;1.95;1.77;;;2.30;99.90;;;;;;4960989;28;20489;-73
2022/04/02 09:35:55;;;;;;;3.00;2.42;;;2.10;99.90;;;;;;5031132;28;20049;-74
2022/04/02 09:38:36;;;;;;;1.70;0.65;;;1.90;99.90;;;;;;5030508;28;20034;-73
2022/04/02 09:41:28;;;;;;;2.35;2.25;;;2.00;99.90;;;;;;5030451;28;20366;-74
2022/04/02 09:44:20;;;;;;;0.30;0.30;;;2.30;99.90;;;;;;5031533;28;20052;-74
2022/04/02 09:47:02;;;;;;;0.75;0.75;;;2.50;99.90;;;;;;5000738;28;20033;-74
2022/04/02 09:49:34;;;;;;;0.30;0.30;;;2.60;99.90;;;;;;5031782;28;20033;-74
2022/04/02 09:52:05;;;;;;;1.55;1.45;;;2.70;99.90;;;;;;5031969;28;20029;-74
2022/04/02 09:54:50;;;;;;;;;;;2.70;99.90;;;;;;5032066;28;20026;-74
2022/04/02 09:57:15;;;;;;;1.02;0.60;;;2.60;99.90;;;;;;5030798;28;19909;-74
2022/04/02 09:59:53;;;;;;;0.47;0.47;;;2.50;99.90;;;;;;5029865;28;20497;-74
2022/04/02 10:03:18;;;;;;;0.50;0.50;;;2.40;99.90;;;;;;5030345;28;20076;-73
2022/04/02 10:05:58;;;;;;;1.67;1.17;;;2.50;99.90;;;;;;5009099;28;20534;-72
2022/04/02 10:08:38;;;;;;;0.30;0.30;;;2.70;99.90;;;;;;5029973;28;20087;-73
2022/04/02 10:11:08;;;;;;;0.30;0.30;;;2.60;99.90;;;;;;5035694;28;20033;-73
2022/04/02 10:13:35;;;;;;;0.50;0.50;;;2.60;99.90;;;;;;5035699;28;20025;-72
2022/04/02 10:16:04;;;;;;;0.32;0.32;;;2.80;99.90;;;;;;5035066;28;20032;-73
2022/04/02 10:18:34;;;;;;;1.15;1.15;;;3.00;99.90;;;;;;5035103;28;20029;-73
2022/04/02 10:21:05;;;;;;;1.42;1.35;;;3.00;99.90;;;;;;5035037;28;20045;-72
2022/04/02 10:23:35;;;;;;;0.40;0.40;;;2.90;99.90;;;;;;5035208;28;20026;-73
2022/04/02 10:26:14;;;;;;;3.92;2.60;;;2.80;99.90;;;;;;5035065;28;20079;-73
2022/04/02 10:28:48;;;;;;;1.17;1.17;;;2.90;99.90;;;;;;5033938;28;20018;-72
2022/04/02 10:31:27;;;;;;;1.05;1.05;;;2.90;99.90;;;;;;5034992;28;20021;-73
2022/04/02 10:33:59;;;;;;;0.47;0.43;;;2.70;99.90;;;;;;5035164;28;20021;-73
2022/04/02 10:36:25;;;;;;;0.90;0.90;;;2.80;99.90;;;;;;5033551;28;20029;-73
2022/04/02 10:38:52;;;;;;;1.50;1.40;;;2.90;99.90;;;;;;5034924;28;20410;-73
2022/04/02 10:41:18;;;;;;;10.85;3.60;;;2.70;99.90;;;;;;5035046;28;20017;-73
2022/04/02 10:43:59;;;;;;;0.50;0.50;;;2.40;99.90;;;;;;5034850;28;20392;-73
2022/04/02 10:46:26;;;;;;;0.30;0.30;;;2.20;99.90;;;;;;5034747;28;20112;-71
2022/04/02 10:49:07;;;;;;;0.90;0.90;;;2.40;99.90;;;;;;5034835;28;20037;-73
2022/04/02 10:51:38;;;;;;;0.30;0.30;;;2.50;99.90;;;;;;5034789;28;20056;-73
2022/04/02 10:56:45;;;;;;;3.97;0.95;;;2.70;99.90;;;;;;5048404;28;20508;-74
2022/04/02 10:59:14;;;;;;;2.10;1.95;;;2.50;99.90;;;;;;5054471;28;20032;-73
2022/04/02 11:01:41;;;;;;;0.80;0.80;;;2.40;99.90;;;;;;5069664;28;20033;-73
2022/04/02 11:04:30;;;;;;;1.65;1.65;;;2.40;99.90;;;;;;5070036;28;20021;-73
2022/04/02 11:06:57;;;;;;;0.50;0.50;;;2.60;99.90;;;;;;5054176;28;20032;-73
2022/04/02 11:09:24;;;;;;;2.03;1.35;;;2.90;99.90;;;;;;5054301;28;20032;-73
2022/04/02 11:11:52;;;;;;;5.93;2.25;;;2.80;99.90;;;;;;5052733;28;20392;-73
2022/04/02 11:14:21;;;;;;;0.40;0.40;;;2.70;99.90;;;;;;5036348;28;20463;-73
2022/04/02 11:16:47;;;;;;;2.38;2.17;;;2.80;99.90;;;;;;5049516;28;20040;-74
2022/04/02 11:22:08;;;;;;;2.47;2.00;;;2.90;99.90;;;;;;5053318;28;20033;-73
2022/04/02 11:24:56;;;;;;;0.77;0.75;;;2.90;99.90;;;;;;5069359;28;20025;-73
2022/04/02 11:27:24;;;;;;;3.45;3.15;;;2.90;99.90;;;;;;5052207;28;20087;-74
2022/04/02 11:29:51;;;;;;;2.55;1.67;;;2.80;99.90;;;;;;5055418;28;20028;-73
2022/04/02 11:32:25;;;;;;;7.03;2.08;;;2.70;99.90;;;;;;5069309;28;20083;-74
2022/04/02 11:34:52;;;;;;;7.43;4.13;;;2.60;99.90;;;;;;5052496;28;20039;-74
2022/04/02 11:37:31;;;;;;;2.45;2.35;;;2.60;99.90;;;;;;5053611;28;20055;-73
2022/04/02 11:40:04;;;;;;;0.20;0.20;;;2.60;99.90;;;;;;5052303;28;20035;-73
2022/04/02 11:42:38;;;;;;;5.32;2.13;;;2.70;99.90;;;;;;5035763;28;20075;-74
2022/04/02 11:45:11;;;;;;;2.80;2.60;;;2.80;99.90;;;;;;5053544;28;20017;-73
2022/04/02 11:47:39;;;;;;;3.22;0.88;;;2.90;99.90;;;;;;5053383;28;20029;-74
2022/04/02 11:50:08;;;;;;;1.35;1.35;;;3.10;99.90;;;;;;5053428;28;20487;-73
2022/04/02 11:52:53;;;;;;;0.40;0.40;;;3.20;99.90;;;;;;5035555;28;20554;-73
2022/04/02 11:55:19;;;;;;;1.08;0.98;;;3.30;99.90;;;;;;5053262;28;20040;-73
2022/04/02 11:58:00;;;;;;;3.60;0.98;;;3.10;99.90;;;;;;5053107;28;20441;-73
2022/04/02 12:00:27;;;;;;;1.90;1.80;;;2.90;99.90;;;;;;5053656;28;20033;-73
2022/04/02 12:02:53;;;;;;;0.30;0.30;;;3.00;99.90;;;;;;5053303;28;20017;-73
2022/04/02 12:05:22;;;;;;;2.92;2.42;;;2.90;99.90;;;;;;5052844;28;20507;-73
2022/04/02 12:07:52;;;;;;;1.70;1.13;;;2.90;99.90;;;;;;5051767;28;20021;-73
2022/04/02 12:10:23;;;;;;;1.35;1.25;;;2.70;99.90;;;;;;5053238;28;20431;-73
2022/04/02 12:12:52;;;;;;;0.40;0.40;;;2.50;99.90;;;;;;5051831;28;20029;-74
2022/04/02 12:15:18;;;;;;;5.15;2.38;;;2.50;99.90;;;;;;5051686;28;20058;-73
2022/04/02 12:18:00;;;;;;;1.80;1.70;;;2.40;99.90;;;;;;5051532;28;20025;-74
2022/04/02 12:20:29;;;;;;;0.47;0.47;;;2.30;99.90;;;;;;5052831;28;20100;-73
2022/04/02 12:23:11;;;;;;;19.00;3.88;;;2.40;99.90;;;;;;5052995;28;20503;-73
2022/04/02 12:25:39;;;;;;;5.43;3.53;;;2.20;99.90;;;;;;5052558;28;20024;-73
2022/04/02 12:28:17;;;;;;;1.05;1.02;;;2.30;99.90;;;;;;5034504;28;20028;-73
2022/04/02 12:30:48;;;;;;;0.40;0.40;;;2.30;99.90;;;;;;5051370;28;20029;-74
2022/04/02 12:33:19;;;;;;;2.22;2.05;;;2.40;99.90;;;;;;5052519;28;20071;-73
2022/04/02 12:36:09;;;;;;;2.77;2.57;;;2.50;99.90;;;;;;5052407;28;20558;-74
2022/04/02 12:38:37;;;;;;;1.25;1.00;;;2.40;99.90;;;;;;5051451;28;20476;-73
2022/04/02 12:41:05;;;;;;;1.63;1.52;;;2.50;99.90;;;;;;5052460;28;20495;-73
2022/04/02 12:43:33;;;;;;;0.55;0.55;;;2.50;99.90;;;;;;5051263;28;20025;-74
2022/04/02 12:46:00;;;;;;;2.22;2.03;;;2.50;99.90;;;;;;5050819;28;20029;-73
2022/04/02 12:48:43;;;;;;;0.50;0.50;;;2.20;99.90;;;;;;5051060;28;20021;-73
2022/04/02 12:51:15;;;;;;;1.58;1.48;;;2.20;99.90;;;;;;5052383;28;20171;-73
2022/04/02 12:53:44;;;;;;;0.55;0.55;;;2.20;99.90;;;;;;5067819;28;20021;-74
2022/04/02 12:56:23;;;;;;;1.15;1.05;;;2.40;99.90;;;;;;5050631;28;20064;-73
2022/04/02 12:58:51;;;;;;;1.75;1.40;;;2.50;99.90;;;;;;5052342;28;20115;-73
2022/04/02 13:01:26;;;;;;;0.40;0.40;;;2.30;99.90;;;;;;5052201;28;20053;-73
2022/04/02 13:04:13;;;;;;;4.75;1.88;;;2.30;99.90;;;;;;5052239;28;20024;-74
2022/04/02 13:06:42;;;;;;;2.17;1.85;;;2.50;99.90;;;;;;5050476;28;20025;-74
2022/04/02 13:09:29;;;;;;;2.60;2.38;;;2.60;99.90;;;;;;5067559;28;20032;-73
2022/04/02 13:12:03;;;;;;;1.23;1.13;;;2.40;99.90;;;;;;5052177;28;20028;-73
2022/04/02 13:14:38;;;;;;;0.55;0.55;;;2.40;99.90;;;;;;5050965;28;20582;-74
2022/04/02 13:17:20;;;;;;;1.70;1.60;;;2.40;99.90;;;;;;5033944;28;20115;-73
2022/04/02 13:22:41;;;;;;;3.50;3.22;;;2.50;99.90;;;;;;5052013;28;20064;-73
2022/04/02 13:25:10;;;;;;;3.85;2.83;;;2.30;99.90;;;;;;5052356;28;20027;-73
2022/04/02 13:27:53;;;;;;;0.30;0.30;;;2.40;99.90;;;;;;5051266;28;20029;-73
2022/04/02 13:30:26;;;;;;;1.55;1.38;;;2.60;99.90;;;;;;5050468;28;20036;-73
2022/04/02 13:33:00;;;;;;;2.58;2.38;;;2.70;99.90;;;;;;5051846;28;20028;-73
2022/04/02 13:35:42;;;;;;;1.20;0.90;;;2.70;99.90;;;;;;5051515;28;20033;-73
2022/04/02 13:38:45;;;;;;;1.35;0.68;;;2.40;99.90;;;;;;5052029;28;20029;-73
2022/04/02 13:41:13;;;;;;;0.30;0.30;;;2.40;99.90;;;;;;5051687;28;20492;-74